sensor_id;sensor_type;location;lat;lon;timestamp;P1;durP1;ratioP1;P2;durP2;ratioP2
2618;SDS011;1319;52.346;13.096;2022-12-07T00:00:38;13.73;;;7.70;;
2618;SDS011;1319;52.346;13.096;2022-12-07T00:03:03;16.20;;;9.00;;
2618;SDS011;1319;52.346;13.096;2022-12-07T00:05:29;13.93;;;8.70;;
2618;SDS011;1319;52.346;13.096;2022-12-07T00:07:54;15.03;;;8.43;;
2618;SDS011;1319;52.346;13.096;2022-12-07T00:10:19;11.83;;;7.70;;
2618;SDS011;1319;52.346;13.096;2022-12-07T00:12:45;14.20;;;8.10;;
2618;SDS011;1319;52.346;13.096;2022-12-07T00:15:10;11.97;;;7.90;;
2618;SDS011;1319;52.346;13.096;2022-12-07T00:17:36;10.60;;;7.17;;
2618;SDS011;1319;52.346;13.096;2022-12-07T00:20:01;14.20;;;7.90;;
2618;SDS011;1319;52.346;13.096;2022-12-07T00:22:26;11.87;;;7.47;;
2618;SDS011;1319;52.346;13.096;2022-12-07T00:24:51;11.33;;;7.30;;
2618;SDS011;1319;52.346;13.096;2022-12-07T00:27:17;13.43;;;6.93;;
2618;SDS011;1319;52.346;13.096;2022-12-07T00:29:42;10.17;;;6.67;;
2618;SDS011;1319;52.346;13.096;2022-12-07T00:32:07;10.30;;;6.77;;
2618;SDS011;1319;52.346;13.096;2022-12-07T00:34:32;10.47;;;7.00;;
2618;SDS011;1319;52.346;13.096;2022-12-07T00:36:57;10.20;;;6.50;;
2618;SDS011;1319;52.346;13.096;2022-12-07T00:39:23;9.47;;;6.30;;
2618;SDS011;1319;52.346;13.096;2022-12-07T00:41:48;11.83;;;6.87;;
2618;SDS011;1319;52.346;13.096;2022-12-07T00:44:13;9.83;;;6.67;;
2618;SDS011;1319;52.346;13.096;2022-12-07T00:46:38;10.60;;;6.57;;
2618;SDS011;1319;52.346;13.096;2022-12-07T00:49:04;10.87;;;6.90;;
2618;SDS011;1319;52.346;13.096;2022-12-07T00:51:29;9.67;;;6.83;;
2618;SDS011;1319;52.346;13.096;2022-12-07T00:53:54;12.30;;;7.13;;
2618;SDS011;1319;52.346;13.096;2022-12-07T00:56:21;11.63;;;6.70;;
2618;SDS011;1319;52.346;13.096;2022-12-07T00:58:53;10.70;;;7.47;;
2618;SDS011;1319;52.346;13.096;2022-12-07T01:01:19;12.30;;;6.67;;
2618;SDS011;1319;52.346;13.096;2022-12-07T01:03:44;10.07;;;7.00;;
2618;SDS011;1319;52.346;13.096;2022-12-07T01:06:09;11.67;;;7.27;;
2618;SDS011;1319;52.346;13.096;2022-12-07T01:08:38;12.87;;;6.83;;
2618;SDS011;1319;52.346;13.096;2022-12-07T01:11:04;11.33;;;7.07;;
2618;SDS011;1319;52.346;13.096;2022-12-07T01:13:30;10.00;;;6.67;;
2618;SDS011;1319;52.346;13.096;2022-12-07T01:15:57;11.17;;;6.87;;
2618;SDS011;1319;52.346;13.096;2022-12-07T01:18:23;9.77;;;6.63;;
2618;SDS011;1319;52.346;13.096;2022-12-07T01:20:56;8.80;;;6.10;;
2618;SDS011;1319;52.346;13.096;2022-12-07T01:23:22;10.33;;;6.53;;
2618;SDS011;1319;52.346;13.096;2022-12-07T01:25:53;9.70;;;6.67;;
2618;SDS011;1319;52.346;13.096;2022-12-07T01:28:18;11.43;;;6.63;;
2618;SDS011;1319;52.346;13.096;2022-12-07T01:30:43;12.03;;;7.07;;
2618;SDS011;1319;52.346;13.096;2022-12-07T01:33:08;10.27;;;6.77;;
2618;SDS011;1319;52.346;13.096;2022-12-07T01:35:34;9.97;;;6.27;;
2618;SDS011;1319;52.346;13.096;2022-12-07T01:37:59;13.37;;;6.77;;
2618;SDS011;1319;52.346;13.096;2022-12-07T01:40:24;9.30;;;6.33;;
2618;SDS011;1319;52.346;13.096;2022-12-07T01:42:49;9.87;;;6.63;;
2618;SDS011;1319;52.346;13.096;2022-12-07T01:47:43;10.33;;;6.73;;
2618;SDS011;1319;52.346;13.096;2022-12-07T01:50:10;10.73;;;6.73;;
2618;SDS011;1319;52.346;13.096;2022-12-07T01:52:35;10.80;;;6.50;;
2618;SDS011;1319;52.346;13.096;2022-12-07T01:55:03;9.73;;;6.43;;
2618;SDS011;1319;52.346;13.096;2022-12-07T01:57:28;10.33;;;6.37;;
2618;SDS011;1319;52.346;13.096;2022-12-07T01:59:54;10.50;;;6.27;;
2618;SDS011;1319;52.346;13.096;2022-12-07T02:02:27;8.40;;;5.60;;
2618;SDS011;1319;52.346;13.096;2022-12-07T02:04:54;9.67;;;5.70;;
2618;SDS011;1319;52.346;13.096;2022-12-07T02:07:20;7.97;;;5.53;;
2618;SDS011;1319;52.346;13.096;2022-12-07T02:09:46;11.30;;;5.40;;
2618;SDS011;1319;52.346;13.096;2022-12-07T02:12:11;9.20;;;6.10;;
2618;SDS011;1319;52.346;13.096;2022-12-07T02:14:37;10.67;;;5.87;;
2618;SDS011;1319;52.346;13.096;2022-12-07T02:17:36;10.00;;;5.50;;
2618;SDS011;1319;52.346;13.096;2022-12-07T02:20:11;7.97;;;5.40;;
2618;SDS011;1319;52.346;13.096;2022-12-07T02:30:28;9.60;;;6.33;;
2618;SDS011;1319;52.346;13.096;2022-12-07T02:33:00;10.53;;;6.63;;
2618;SDS011;1319;52.346;13.096;2022-12-07T02:40:48;11.53;;;7.00;;
2618;SDS011;1319;52.346;13.096;2022-12-07T02:43:19;13.23;;;6.27;;
2618;SDS011;1319;52.346;13.096;2022-12-07T02:45:46;10.63;;;6.40;;
2618;SDS011;1319;52.346;13.096;2022-12-07T02:48:13;13.20;;;7.17;;
2618;SDS011;1319;52.346;13.096;2022-12-07T02:50:44;15.07;;;7.17;;
2618;SDS011;1319;52.346;13.096;2022-12-07T02:53:27;11.50;;;6.80;;
2618;SDS011;1319;52.346;13.096;2022-12-07T02:55:53;12.50;;;6.60;;
2618;SDS011;1319;52.346;13.096;2022-12-07T03:01:09;13.50;;;6.83;;
2618;SDS011;1319;52.346;13.096;2022-12-07T03:03:39;14.00;;;7.83;;
2618;SDS011;1319;52.346;13.096;2022-12-07T03:11:16;13.83;;;7.40;;
2618;SDS011;1319;52.346;13.096;2022-12-07T03:19:02;15.33;;;8.50;;
2618;SDS011;1319;52.346;13.096;2022-12-07T03:21:25;14.80;;;7.83;;
2618;SDS011;1319;52.346;13.096;2022-12-07T03:23:53;16.17;;;8.17;;
2618;SDS011;1319;52.346;13.096;2022-12-07T03:26:19;14.97;;;8.23;;
2618;SDS011;1319;52.346;13.096;2022-12-07T03:28:48;17.33;;;8.33;;
2618;SDS011;1319;52.346;13.096;2022-12-07T03:31:33;16.77;;;8.93;;
2618;SDS011;1319;52.346;13.096;2022-12-07T03:37:08;16.60;;;9.40;;
2618;SDS011;1319;52.346;13.096;2022-12-07T03:42:09;19.93;;;9.63;;
2618;SDS011;1319;52.346;13.096;2022-12-07T03:44:35;18.67;;;9.30;;
2618;SDS011;1319;52.346;13.096;2022-12-07T03:54:36;17.67;;;9.50;;
2618;SDS011;1319;52.346;13.096;2022-12-07T03:57:04;22.30;;;10.30;;
2618;SDS011;1319;52.346;13.096;2022-12-07T03:59:30;25.17;;;11.30;;
2618;SDS011;1319;52.346;13.096;2022-12-07T04:01:56;26.07;;;11.50;;
2618;SDS011;1319;52.346;13.096;2022-12-07T04:04:22;22.10;;;10.60;;
2618;SDS011;1319;52.346;13.096;2022-12-07T04:06:48;22.93;;;11.27;;
2618;SDS011;1319;52.346;13.096;2022-12-07T04:09:13;24.67;;;11.97;;
2618;SDS011;1319;52.346;13.096;2022-12-07T04:11:39;30.53;;;13.27;;
2618;SDS011;1319;52.346;13.096;2022-12-07T04:14:04;29.20;;;13.67;;
2618;SDS011;1319;52.346;13.096;2022-12-07T04:19:10;30.13;;;13.60;;
2618;SDS011;1319;52.346;13.096;2022-12-07T04:21:35;29.43;;;13.60;;
2618;SDS011;1319;52.346;13.096;2022-12-07T04:24:00;28.20;;;13.07;;
2618;SDS011;1319;52.346;13.096;2022-12-07T04:26:26;33.20;;;13.57;;
2618;SDS011;1319;52.346;13.096;2022-12-07T04:28:51;28.03;;;12.93;;
2618;SDS011;1319;52.346;13.096;2022-12-07T04:31:16;33.80;;;15.57;;
2618;SDS011;1319;52.346;13.096;2022-12-07T04:33:41;32.70;;;14.30;;
2618;SDS011;1319;52.346;13.096;2022-12-07T04:36:06;33.63;;;14.83;;
2618;SDS011;1319;52.346;13.096;2022-12-07T04:38:32;36.67;;;15.40;;
2618;SDS011;1319;52.346;13.096;2022-12-07T04:40:57;35.73;;;14.37;;
2618;SDS011;1319;52.346;13.096;2022-12-07T04:43:22;37.00;;;15.30;;
2618;SDS011;1319;52.346;13.096;2022-12-07T04:45:47;32.97;;;13.10;;
2618;SDS011;1319;52.346;13.096;2022-12-07T04:48:13;32.23;;;14.90;;
2618;SDS011;1319;52.346;13.096;2022-12-07T04:50:38;37.13;;;15.90;;
2618;SDS011;1319;52.346;13.096;2022-12-07T04:53:03;33.00;;;15.07;;
2618;SDS011;1319;52.346;13.096;2022-12-07T04:55:29;35.30;;;15.23;;
2618;SDS011;1319;52.346;13.096;2022-12-07T04:57:54;35.17;;;15.87;;
2618;SDS011;1319;52.346;13.096;2022-12-07T05:00:19;35.30;;;15.77;;
2618;SDS011;1319;52.346;13.096;2022-12-07T05:02:44;35.00;;;14.93;;
2618;SDS011;1319;52.346;13.096;2022-12-07T05:05:10;35.03;;;15.03;;
2618;SDS011;1319;52.346;13.096;2022-12-07T05:07:35;40.63;;;15.03;;
2618;SDS011;1319;52.346;13.096;2022-12-07T05:10:00;41.53;;;15.73;;
2618;SDS011;1319;52.346;13.096;2022-12-07T05:12:25;38.63;;;16.27;;
2618;SDS011;1319;52.346;13.096;2022-12-07T05:14:50;39.43;;;16.33;;
2618;SDS011;1319;52.346;13.096;2022-12-07T05:17:16;38.70;;;16.33;;
2618;SDS011;1319;52.346;13.096;2022-12-07T05:19:41;38.27;;;16.43;;
2618;SDS011;1319;52.346;13.096;2022-12-07T05:22:06;42.73;;;17.13;;
2618;SDS011;1319;52.346;13.096;2022-12-07T05:24:32;43.80;;;17.80;;
2618;SDS011;1319;52.346;13.096;2022-12-07T05:26:57;38.20;;;15.90;;
2618;SDS011;1319;52.346;13.096;2022-12-07T05:29:22;44.47;;;17.17;;
2618;SDS011;1319;52.346;13.096;2022-12-07T05:31:47;45.80;;;18.23;;
2618;SDS011;1319;52.346;13.096;2022-12-07T05:34:13;46.97;;;18.77;;
2618;SDS011;1319;52.346;13.096;2022-12-07T05:36:38;51.67;;;18.43;;
2618;SDS011;1319;52.346;13.096;2022-12-07T05:39:04;46.43;;;17.97;;
2618;SDS011;1319;52.346;13.096;2022-12-07T05:41:29;46.00;;;18.03;;
2618;SDS011;1319;52.346;13.096;2022-12-07T05:44:13;43.50;;;17.97;;
2618;SDS011;1319;52.346;13.096;2022-12-07T05:46:38;43.57;;;18.40;;
2618;SDS011;1319;52.346;13.096;2022-12-07T05:49:03;41.80;;;17.90;;
2618;SDS011;1319;52.346;13.096;2022-12-07T05:51:28;55.07;;;18.67;;
2618;SDS011;1319;52.346;13.096;2022-12-07T05:53:54;49.00;;;18.63;;
2618;SDS011;1319;52.346;13.096;2022-12-07T05:56:19;46.07;;;18.30;;
2618;SDS011;1319;52.346;13.096;2022-12-07T05:58:44;44.70;;;16.63;;
2618;SDS011;1319;52.346;13.096;2022-12-07T06:01:28;45.47;;;17.80;;
2618;SDS011;1319;52.346;13.096;2022-12-07T06:03:54;43.77;;;16.43;;
2618;SDS011;1319;52.346;13.096;2022-12-07T06:06:19;42.37;;;18.03;;
2618;SDS011;1319;52.346;13.096;2022-12-07T06:08:44;46.93;;;19.43;;
2618;SDS011;1319;52.346;13.096;2022-12-07T06:11:09;51.17;;;19.80;;
2618;SDS011;1319;52.346;13.096;2022-12-07T06:13:53;51.47;;;19.63;;
2618;SDS011;1319;52.346;13.096;2022-12-07T06:16:19;47.07;;;19.70;;
2618;SDS011;1319;52.346;13.096;2022-12-07T06:18:44;45.63;;;18.77;;
2618;SDS011;1319;52.346;13.096;2022-12-07T06:21:09;42.80;;;17.57;;
2618;SDS011;1319;52.346;13.096;2022-12-07T06:23:34;45.87;;;19.13;;
2618;SDS011;1319;52.346;13.096;2022-12-07T06:25:59;44.10;;;18.07;;
2618;SDS011;1319;52.346;13.096;2022-12-07T06:28:25;49.80;;;19.33;;
2618;SDS011;1319;52.346;13.096;2022-12-07T06:30:59;43.23;;;18.60;;
2618;SDS011;1319;52.346;13.096;2022-12-07T06:33:25;46.63;;;17.57;;
2618;SDS011;1319;52.346;13.096;2022-12-07T06:35:50;40.37;;;17.60;;
2618;SDS011;1319;52.346;13.096;2022-12-07T06:38:16;40.57;;;17.57;;
2618;SDS011;1319;52.346;13.096;2022-12-07T06:40:41;45.67;;;19.23;;
2618;SDS011;1319;52.346;13.096;2022-12-07T06:43:06;43.43;;;19.17;;
2618;SDS011;1319;52.346;13.096;2022-12-07T06:45:32;44.97;;;19.67;;
2618;SDS011;1319;52.346;13.096;2022-12-07T06:47:58;44.33;;;17.80;;
2618;SDS011;1319;52.346;13.096;2022-12-07T06:50:23;42.17;;;18.30;;
2618;SDS011;1319;52.346;13.096;2022-12-07T06:52:48;45.30;;;18.57;;
2618;SDS011;1319;52.346;13.096;2022-12-07T06:55:13;43.07;;;18.83;;
2618;SDS011;1319;52.346;13.096;2022-12-07T06:57:39;43.57;;;17.03;;
2618;SDS011;1319;52.346;13.096;2022-12-07T07:00:04;47.77;;;18.70;;
2618;SDS011;1319;52.346;13.096;2022-12-07T07:02:30;41.47;;;18.27;;
2618;SDS011;1319;52.346;13.096;2022-12-07T07:04:55;42.13;;;19.03;;
2618;SDS011;1319;52.346;13.096;2022-12-07T07:07:20;43.13;;;18.67;;
2618;SDS011;1319;52.346;13.096;2022-12-07T07:09:45;40.40;;;17.63;;
2618;SDS011;1319;52.346;13.096;2022-12-07T07:12:10;40.17;;;18.23;;
2618;SDS011;1319;52.346;13.096;2022-12-07T07:14:36;43.57;;;16.63;;
2618;SDS011;1319;52.346;13.096;2022-12-07T07:17:01;34.27;;;16.47;;
2618;SDS011;1319;52.346;13.096;2022-12-07T07:19:26;42.60;;;17.57;;
2618;SDS011;1319;52.346;13.096;2022-12-07T07:21:52;36.87;;;17.03;;
2618;SDS011;1319;52.346;13.096;2022-12-07T07:24:17;37.57;;;17.57;;
2618;SDS011;1319;52.346;13.096;2022-12-07T07:26:42;38.80;;;16.47;;
2618;SDS011;1319;52.346;13.096;2022-12-07T07:29:07;33.00;;;16.03;;
2618;SDS011;1319;52.346;13.096;2022-12-07T07:31:33;43.00;;;16.37;;
2618;SDS011;1319;52.346;13.096;2022-12-07T07:34:00;35.23;;;16.17;;
2618;SDS011;1319;52.346;13.096;2022-12-07T07:36:25;32.43;;;15.80;;
2618;SDS011;1319;52.346;13.096;2022-12-07T07:38:51;35.40;;;15.93;;
2618;SDS011;1319;52.346;13.096;2022-12-07T07:41:16;31.23;;;14.77;;
2618;SDS011;1319;52.346;13.096;2022-12-07T07:43:41;32.50;;;15.20;;
2618;SDS011;1319;52.346;13.096;2022-12-07T07:46:06;32.30;;;14.23;;
2618;SDS011;1319;52.346;13.096;2022-12-07T07:48:32;30.57;;;14.43;;
2618;SDS011;1319;52.346;13.096;2022-12-07T07:50:57;29.93;;;13.83;;
2618;SDS011;1319;52.346;13.096;2022-12-07T07:53:22;28.20;;;12.90;;
2618;SDS011;1319;52.346;13.096;2022-12-07T07:55:51;29.63;;;13.67;;
2618;SDS011;1319;52.346;13.096;2022-12-07T07:58:17;28.47;;;13.60;;
2618;SDS011;1319;52.346;13.096;2022-12-07T08:00:42;27.37;;;13.67;;
2618;SDS011;1319;52.346;13.096;2022-12-07T08:03:07;27.83;;;13.10;;
2618;SDS011;1319;52.346;13.096;2022-12-07T08:05:33;27.90;;;13.33;;
2618;SDS011;1319;52.346;13.096;2022-12-07T08:07:58;24.70;;;12.00;;
2618;SDS011;1319;52.346;13.096;2022-12-07T08:10:23;29.17;;;12.00;;
2618;SDS011;1319;52.346;13.096;2022-12-07T08:12:48;22.43;;;10.50;;
2618;SDS011;1319;52.346;13.096;2022-12-07T08:15:32;21.80;;;10.63;;
2618;SDS011;1319;52.346;13.096;2022-12-07T08:17:58;21.17;;;9.97;;
2618;SDS011;1319;52.346;13.096;2022-12-07T08:20:23;19.87;;;9.53;;
2618;SDS011;1319;52.346;13.096;2022-12-07T08:22:48;18.73;;;9.07;;
2618;SDS011;1319;52.346;13.096;2022-12-07T08:25:14;15.60;;;9.37;;
2618;SDS011;1319;52.346;13.096;2022-12-07T08:27:39;12.63;;;7.40;;
2618;SDS011;1319;52.346;13.096;2022-12-07T08:30:04;7.93;;;5.10;;
2618;SDS011;1319;52.346;13.096;2022-12-07T08:32:30;7.07;;;4.20;;
2618;SDS011;1319;52.346;13.096;2022-12-07T08:34:55;7.47;;;3.40;;
2618;SDS011;1319;52.346;13.096;2022-12-07T08:37:20;5.70;;;3.63;;
2618;SDS011;1319;52.346;13.096;2022-12-07T08:39:46;5.67;;;3.60;;
2618;SDS011;1319;52.346;13.096;2022-12-07T08:42:11;3.70;;;3.37;;
2618;SDS011;1319;52.346;13.096;2022-12-07T08:44:36;3.83;;;3.13;;
2618;SDS011;1319;52.346;13.096;2022-12-07T08:47:02;9.20;;;3.70;;
2618;SDS011;1319;52.346;13.096;2022-12-07T08:49:33;6.57;;;3.80;;
2618;SDS011;1319;52.346;13.096;2022-12-07T08:52:01;5.53;;;3.63;;
2618;SDS011;1319;52.346;13.096;2022-12-07T08:54:28;7.87;;;4.37;;
2618;SDS011;1319;52.346;13.096;2022-12-07T08:56:53;8.50;;;4.07;;
2618;SDS011;1319;52.346;13.096;2022-12-07T08:59:20;4.83;;;3.87;;
2618;SDS011;1319;52.346;13.096;2022-12-07T09:01:45;7.43;;;4.57;;
2618;SDS011;1319;52.346;13.096;2022-12-07T09:04:11;6.40;;;4.10;;
2618;SDS011;1319;52.346;13.096;2022-12-07T09:06:36;6.60;;;4.27;;
2618;SDS011;1319;52.346;13.096;2022-12-07T09:09:02;6.27;;;4.17;;
2618;SDS011;1319;52.346;13.096;2022-12-07T09:11:27;7.37;;;3.67;;
2618;SDS011;1319;52.346;13.096;2022-12-07T09:13:52;5.93;;;3.90;;
2618;SDS011;1319;52.346;13.096;2022-12-07T09:16:18;6.90;;;4.07;;
2618;SDS011;1319;52.346;13.096;2022-12-07T09:18:43;3.90;;;3.60;;
2618;SDS011;1319;52.346;13.096;2022-12-07T09:21:08;4.70;;;3.70;;
2618;SDS011;1319;52.346;13.096;2022-12-07T09:23:34;5.13;;;4.00;;
2618;SDS011;1319;52.346;13.096;2022-12-07T09:26:00;8.20;;;4.13;;
2618;SDS011;1319;52.346;13.096;2022-12-07T09:28:25;7.57;;;3.70;;
2618;SDS011;1319;52.346;13.096;2022-12-07T09:30:51;8.17;;;3.70;;
2618;SDS011;1319;52.346;13.096;2022-12-07T09:33:16;3.97;;;3.30;;
2618;SDS011;1319;52.346;13.096;2022-12-07T09:35:45;4.27;;;3.70;;
2618;SDS011;1319;52.346;13.096;2022-12-07T09:38:10;4.20;;;3.77;;
2618;SDS011;1319;52.346;13.096;2022-12-07T09:40:36;4.43;;;3.53;;
2618;SDS011;1319;52.346;13.096;2022-12-07T09:43:01;6.13;;;3.80;;
2618;SDS011;1319;52.346;13.096;2022-12-07T09:45:27;4.90;;;3.30;;
2618;SDS011;1319;52.346;13.096;2022-12-07T09:47:54;6.97;;;3.80;;
2618;SDS011;1319;52.346;13.096;2022-12-07T09:50:22;4.87;;;3.40;;
2618;SDS011;1319;52.346;13.096;2022-12-07T09:52:48;6.77;;;4.10;;
2618;SDS011;1319;52.346;13.096;2022-12-07T09:55:15;7.97;;;3.67;;
2618;SDS011;1319;52.346;13.096;2022-12-07T09:57:40;4.33;;;3.53;;
2618;SDS011;1319;52.346;13.096;2022-12-07T10:00:10;5.23;;;3.67;;
2618;SDS011;1319;52.346;13.096;2022-12-07T10:02:55;5.33;;;3.83;;
2618;SDS011;1319;52.346;13.096;2022-12-07T10:05:23;6.97;;;3.63;;
2618;SDS011;1319;52.346;13.096;2022-12-07T10:07:49;4.83;;;3.70;;
2618;SDS011;1319;52.346;13.096;2022-12-07T10:10:17;4.60;;;3.67;;
2618;SDS011;1319;52.346;13.096;2022-12-07T10:13:02;4.23;;;3.70;;
2618;SDS011;1319;52.346;13.096;2022-12-07T10:15:41;7.13;;;3.67;;
2618;SDS011;1319;52.346;13.096;2022-12-07T10:18:15;9.17;;;3.90;;
2618;SDS011;1319;52.346;13.096;2022-12-07T10:20:41;6.73;;;3.60;;
2618;SDS011;1319;52.346;13.096;2022-12-07T10:23:13;9.43;;;4.10;;
2618;SDS011;1319;52.346;13.096;2022-12-07T10:25:39;5.53;;;3.43;;
2618;SDS011;1319;52.346;13.096;2022-12-07T10:31:20;6.30;;;3.63;;
2618;SDS011;1319;52.346;13.096;2022-12-07T10:35:53;5.83;;;3.57;;
2618;SDS011;1319;52.346;13.096;2022-12-07T10:38:18;4.53;;;3.40;;
2618;SDS011;1319;52.346;13.096;2022-12-07T10:40:44;7.73;;;3.47;;
2618;SDS011;1319;52.346;13.096;2022-12-07T10:46:13;4.23;;;3.37;;
2618;SDS011;1319;52.346;13.096;2022-12-07T11:06:47;5.50;;;3.00;;
2618;SDS011;1319;52.346;13.096;2022-12-07T11:14:34;5.73;;;2.53;;
2618;SDS011;1319;52.346;13.096;2022-12-07T11:17:12;9.53;;;3.30;;
2618;SDS011;1319;52.346;13.096;2022-12-07T11:22:13;3.07;;;2.77;;
2618;SDS011;1319;52.346;13.096;2022-12-07T11:24:42;5.47;;;3.00;;
2618;SDS011;1319;52.346;13.096;2022-12-07T11:37:19;5.43;;;2.93;;
2618;SDS011;1319;52.346;13.096;2022-12-07T11:39:48;8.40;;;3.57;;
2618;SDS011;1319;52.346;13.096;2022-12-07T11:42:25;3.93;;;3.07;;
2618;SDS011;1319;52.346;13.096;2022-12-07T11:44:52;4.97;;;3.13;;
2618;SDS011;1319;52.346;13.096;2022-12-07T11:47:38;4.23;;;3.10;;
2618;SDS011;1319;52.346;13.096;2022-12-07T11:50:29;5.73;;;3.03;;
2618;SDS011;1319;52.346;13.096;2022-12-07T11:58:03;3.07;;;2.70;;
2618;SDS011;1319;52.346;13.096;2022-12-07T12:00:29;6.90;;;2.90;;
2618;SDS011;1319;52.346;13.096;2022-12-07T12:05:22;4.40;;;2.70;;
2618;SDS011;1319;52.346;13.096;2022-12-07T12:08:23;5.87;;;3.03;;
2618;SDS011;1319;52.346;13.096;2022-12-07T12:10:50;6.23;;;3.23;;
2618;SDS011;1319;52.346;13.096;2022-12-07T12:13:36;4.07;;;2.50;;
2618;SDS011;1319;52.346;13.096;2022-12-07T12:16:14;3.03;;;2.60;;
2618;SDS011;1319;52.346;13.096;2022-12-07T12:21:16;3.93;;;2.30;;
2618;SDS011;1319;52.346;13.096;2022-12-07T12:23:44;5.37;;;2.73;;
2618;SDS011;1319;52.346;13.096;2022-12-07T12:26:16;4.63;;;2.70;;
2618;SDS011;1319;52.346;13.096;2022-12-07T12:28:50;5.17;;;2.57;;
2618;SDS011;1319;52.346;13.096;2022-12-07T12:46:52;4.33;;;2.10;;
2618;SDS011;1319;52.346;13.096;2022-12-07T12:51:43;4.00;;;2.00;;
2618;SDS011;1319;52.346;13.096;2022-12-07T12:59:31;4.17;;;2.10;;
2618;SDS011;1319;52.346;13.096;2022-12-07T13:04:30;6.47;;;1.90;;
2618;SDS011;1319;52.346;13.096;2022-12-07T13:06:59;4.77;;;2.00;;
2618;SDS011;1319;52.346;13.096;2022-12-07T13:09:28;5.00;;;1.80;;
2618;SDS011;1319;52.346;13.096;2022-12-07T13:12:01;5.30;;;2.33;;
2618;SDS011;1319;52.346;13.096;2022-12-07T13:19:55;2.63;;;1.90;;
2618;SDS011;1319;52.346;13.096;2022-12-07T13:27:39;4.23;;;1.93;;
2618;SDS011;1319;52.346;13.096;2022-12-07T13:30:14;2.70;;;2.37;;
2618;SDS011;1319;52.346;13.096;2022-12-07T13:32:40;3.93;;;2.10;;
2618;SDS011;1319;52.346;13.096;2022-12-07T13:35:27;3.53;;;2.30;;
2618;SDS011;1319;52.346;13.096;2022-12-07T13:37:51;4.47;;;2.27;;
2618;SDS011;1319;52.346;13.096;2022-12-07T13:40:17;9.20;;;2.30;;
2618;SDS011;1319;52.346;13.096;2022-12-07T13:42:43;5.37;;;2.40;;
2618;SDS011;1319;52.346;13.096;2022-12-07T13:45:22;6.57;;;2.70;;
2618;SDS011;1319;52.346;13.096;2022-12-07T13:48:08;3.33;;;2.20;;
2618;SDS011;1319;52.346;13.096;2022-12-07T13:50:38;4.37;;;2.43;;
2618;SDS011;1319;52.346;13.096;2022-12-07T13:53:07;6.27;;;2.60;;
2618;SDS011;1319;52.346;13.096;2022-12-07T13:55:36;7.13;;;3.03;;
2618;SDS011;1319;52.346;13.096;2022-12-07T13:58:08;6.83;;;3.10;;
2618;SDS011;1319;52.346;13.096;2022-12-07T14:00:34;6.30;;;2.80;;
2618;SDS011;1319;52.346;13.096;2022-12-07T14:05:37;7.03;;;2.90;;
2618;SDS011;1319;52.346;13.096;2022-12-07T14:08:21;7.10;;;2.60;;
2618;SDS011;1319;52.346;13.096;2022-12-07T14:15:52;5.23;;;2.80;;
2618;SDS011;1319;52.346;13.096;2022-12-07T14:18:25;5.50;;;3.17;;
2618;SDS011;1319;52.346;13.096;2022-12-07T14:20:52;7.13;;;2.97;;
2618;SDS011;1319;52.346;13.096;2022-12-07T14:23:27;6.77;;;2.90;;
2618;SDS011;1319;52.346;13.096;2022-12-07T14:25:53;5.30;;;2.60;;
2618;SDS011;1319;52.346;13.096;2022-12-07T14:28:25;6.03;;;2.83;;
2618;SDS011;1319;52.346;13.096;2022-12-07T14:30:50;6.30;;;2.47;;
2618;SDS011;1319;52.346;13.096;2022-12-07T14:33:16;7.47;;;2.53;;
2618;SDS011;1319;52.346;13.096;2022-12-07T14:35:42;4.80;;;2.57;;
2618;SDS011;1319;52.346;13.096;2022-12-07T14:38:07;6.87;;;2.93;;
2618;SDS011;1319;52.346;13.096;2022-12-07T14:40:32;5.53;;;2.37;;
2618;SDS011;1319;52.346;13.096;2022-12-07T14:43:01;7.57;;;2.60;;
2618;SDS011;1319;52.346;13.096;2022-12-07T14:45:27;3.37;;;2.40;;
2618;SDS011;1319;52.346;13.096;2022-12-07T14:47:52;13.00;;;2.60;;
2618;SDS011;1319;52.346;13.096;2022-12-07T14:50:18;4.03;;;2.50;;
2618;SDS011;1319;52.346;13.096;2022-12-07T14:52:46;8.53;;;2.60;;
2618;SDS011;1319;52.346;13.096;2022-12-07T14:55:13;6.17;;;2.57;;
2618;SDS011;1319;52.346;13.096;2022-12-07T14:57:39;7.77;;;2.40;;
2618;SDS011;1319;52.346;13.096;2022-12-07T15:00:04;5.73;;;2.27;;
2618;SDS011;1319;52.346;13.096;2022-12-07T15:02:30;4.63;;;2.77;;
2618;SDS011;1319;52.346;13.096;2022-12-07T15:04:55;10.67;;;2.77;;
2618;SDS011;1319;52.346;13.096;2022-12-07T15:07:20;3.90;;;2.50;;
2618;SDS011;1319;52.346;13.096;2022-12-07T15:09:47;4.47;;;2.43;;
2618;SDS011;1319;52.346;13.096;2022-12-07T15:12:12;8.47;;;2.60;;
2618;SDS011;1319;52.346;13.096;2022-12-07T15:14:37;8.03;;;2.60;;
2618;SDS011;1319;52.346;13.096;2022-12-07T15:17:02;6.63;;;2.90;;
2618;SDS011;1319;52.346;13.096;2022-12-07T15:19:28;5.13;;;3.03;;
2618;SDS011;1319;52.346;13.096;2022-12-07T15:21:53;6.37;;;2.67;;
2618;SDS011;1319;52.346;13.096;2022-12-07T15:24:19;7.73;;;2.73;;
2618;SDS011;1319;52.346;13.096;2022-12-07T15:26:44;7.73;;;2.90;;
2618;SDS011;1319;52.346;13.096;2022-12-07T15:29:09;8.40;;;2.83;;
2618;SDS011;1319;52.346;13.096;2022-12-07T15:31:36;7.30;;;2.97;;
2618;SDS011;1319;52.346;13.096;2022-12-07T15:34:01;9.07;;;3.17;;
2618;SDS011;1319;52.346;13.096;2022-12-07T15:36:27;8.27;;;3.13;;
2618;SDS011;1319;52.346;13.096;2022-12-07T15:38:53;11.07;;;3.13;;
2618;SDS011;1319;52.346;13.096;2022-12-07T15:41:19;6.50;;;2.93;;
2618;SDS011;1319;52.346;13.096;2022-12-07T15:43:45;8.43;;;3.13;;
2618;SDS011;1319;52.346;13.096;2022-12-07T15:46:34;5.67;;;3.60;;
2618;SDS011;1319;52.346;13.096;2022-12-07T15:48:59;7.73;;;3.37;;
2618;SDS011;1319;52.346;13.096;2022-12-07T15:51:24;9.87;;;3.00;;
2618;SDS011;1319;52.346;13.096;2022-12-07T15:53:50;8.23;;;3.70;;
2618;SDS011;1319;52.346;13.096;2022-12-07T15:56:15;9.93;;;2.97;;
2618;SDS011;1319;52.346;13.096;2022-12-07T15:58:40;4.30;;;2.67;;
2618;SDS011;1319;52.346;13.096;2022-12-07T16:01:16;6.97;;;3.23;;
2618;SDS011;1319;52.346;13.096;2022-12-07T16:03:41;8.67;;;3.30;;
2618;SDS011;1319;52.346;13.096;2022-12-07T16:06:07;6.53;;;3.03;;
2618;SDS011;1319;52.346;13.096;2022-12-07T16:08:32;7.20;;;3.30;;
2618;SDS011;1319;52.346;13.096;2022-12-07T16:10:57;10.57;;;3.70;;
2618;SDS011;1319;52.346;13.096;2022-12-07T16:13:23;7.23;;;2.90;;
2618;SDS011;1319;52.346;13.096;2022-12-07T16:15:48;5.20;;;3.07;;
2618;SDS011;1319;52.346;13.096;2022-12-07T16:18:13;6.00;;;3.10;;
2618;SDS011;1319;52.346;13.096;2022-12-07T16:20:39;9.63;;;2.90;;
2618;SDS011;1319;52.346;13.096;2022-12-07T16:23:05;6.03;;;2.90;;
2618;SDS011;1319;52.346;13.096;2022-12-07T16:25:30;8.60;;;2.97;;
2618;SDS011;1319;52.346;13.096;2022-12-07T16:27:55;7.67;;;3.40;;
2618;SDS011;1319;52.346;13.096;2022-12-07T16:30:20;12.13;;;3.10;;
2618;SDS011;1319;52.346;13.096;2022-12-07T16:32:46;10.33;;;3.10;;
2618;SDS011;1319;52.346;13.096;2022-12-07T16:35:11;4.67;;;2.70;;
2618;SDS011;1319;52.346;13.096;2022-12-07T16:37:36;10.00;;;3.20;;
2618;SDS011;1319;52.346;13.096;2022-12-07T16:40:02;5.03;;;3.33;;
2618;SDS011;1319;52.346;13.096;2022-12-07T16:42:30;4.67;;;2.63;;
2618;SDS011;1319;52.346;13.096;2022-12-07T16:44:56;6.00;;;2.97;;
2618;SDS011;1319;52.346;13.096;2022-12-07T16:47:21;6.80;;;3.00;;
2618;SDS011;1319;52.346;13.096;2022-12-07T16:49:46;8.63;;;3.20;;
2618;SDS011;1319;52.346;13.096;2022-12-07T16:52:12;8.40;;;3.20;;
2618;SDS011;1319;52.346;13.096;2022-12-07T16:54:37;6.80;;;2.80;;
2618;SDS011;1319;52.346;13.096;2022-12-07T16:57:03;6.73;;;3.20;;
2618;SDS011;1319;52.346;13.096;2022-12-07T16:59:28;10.50;;;3.50;;
2618;SDS011;1319;52.346;13.096;2022-12-07T17:01:53;8.67;;;2.87;;
2618;SDS011;1319;52.346;13.096;2022-12-07T17:04:18;7.90;;;3.13;;
2618;SDS011;1319;52.346;13.096;2022-12-07T17:06:44;7.47;;;3.40;;
2618;SDS011;1319;52.346;13.096;2022-12-07T17:09:09;5.40;;;3.00;;
2618;SDS011;1319;52.346;13.096;2022-12-07T17:11:36;5.60;;;3.10;;
2618;SDS011;1319;52.346;13.096;2022-12-07T17:14:01;7.33;;;3.00;;